sensor_id;sensor_type;location;lat;lon;timestamp;temperature;humidity
70271;SHT31;57680;54.292;18.598;2023-12-20T00:01:08;6.49;98.25
70271;SHT31;57680;54.292;18.598;2023-12-20T00:03:33;6.54;98.24
70271;SHT31;57680;54.292;18.598;2023-12-20T00:05:59;6.54;98.42
70271;SHT31;57680;54.292;18.598;2023-12-20T00:08:24;6.54;98.50
70271;SHT31;57680;54.292;18.598;2023-12-20T00:10:49;6.54;98.60
70271;SHT31;57680;54.292;18.598;2023-12-20T00:13:15;6.54;98.75
70271;SHT31;57680;54.292;18.598;2023-12-20T00:15:40;6.58;98.90
70271;SHT31;57680;54.292;18.598;2023-12-20T00:18:05;6.58;98.99
70271;SHT31;57680;54.292;18.598;2023-12-20T00:20:31;6.54;99.22
70271;SHT31;57680;54.292;18.598;2023-12-20T00:22:57;6.54;99.29
70271;SHT31;57680;54.292;18.598;2023-12-20T00:25:22;6.51;99.45
70271;SHT31;57680;54.292;18.598;2023-12-20T00:27:47;6.54;99.61
70271;SHT31;57680;54.292;18.598;2023-12-20T00:30:13;6.49;99.46
70271;SHT31;57680;54.292;18.598;2023-12-20T00:32:38;6.49;99.57
70271;SHT31;57680;54.292;18.598;2023-12-20T00:35:04;6.45;99.40
70271;SHT31;57680;54.292;18.598;2023-12-20T00:37:29;6.49;99.23
70271;SHT31;57680;54.292;18.598;2023-12-20T00:39:54;6.54;98.95
70271;SHT31;57680;54.292;18.598;2023-12-20T00:42:20;6.49;98.81
70271;SHT31;57680;54.292;18.598;2023-12-20T00:44:45;6.49;98.62
70271;SHT31;57680;54.292;18.598;2023-12-20T00:47:10;6.56;98.35
70271;SHT31;57680;54.292;18.598;2023-12-20T00:49:35;6.49;97.92
70271;SHT31;57680;54.292;18.598;2023-12-20T00:52:01;6.48;98.00
70271;SHT31;57680;54.292;18.598;2023-12-20T00:54:26;6.44;97.50
70271;SHT31;57680;54.292;18.598;2023-12-20T00:56:51;6.37;96.93
70271;SHT31;57680;54.292;18.598;2023-12-20T00:59:17;6.38;97.24
70271;SHT31;57680;54.292;18.598;2023-12-20T01:01:42;6.30;96.78
70271;SHT31;57680;54.292;18.598;2023-12-20T01:04:07;6.18;95.53
70271;SHT31;57680;54.292;18.598;2023-12-20T01:06:33;6.11;95.26
70271;SHT31;57680;54.292;18.598;2023-12-20T01:08:58;6.10;95.12
70271;SHT31;57680;54.292;18.598;2023-12-20T01:11:23;6.03;94.43
70271;SHT31;57680;54.292;18.598;2023-12-20T01:13:48;6.03;94.57
70271;SHT31;57680;54.292;18.598;2023-12-20T01:16:14;5.90;94.98
70271;SHT31;57680;54.292;18.598;2023-12-20T01:18:39;5.86;95.15
70271;SHT31;57680;54.292;18.598;2023-12-20T01:21:04;5.76;95.22
70271;SHT31;57680;54.292;18.598;2023-12-20T01:23:30;5.67;95.21
70271;SHT31;57680;54.292;18.598;2023-12-20T01:25:55;5.62;95.19
70271;SHT31;57680;54.292;18.598;2023-12-20T01:28:21;5.60;95.43
70271;SHT31;57680;54.292;18.598;2023-12-20T01:30:46;5.55;95.06
70271;SHT31;57680;54.292;18.598;2023-12-20T01:33:11;5.56;94.39
70271;SHT31;57680;54.292;18.598;2023-12-20T01:35:37;5.55;94.26
70271;SHT31;57680;54.292;18.598;2023-12-20T01:38:02;5.51;93.93
70271;SHT31;57680;54.292;18.598;2023-12-20T01:40:28;5.51;93.79
70271;SHT31;57680;54.292;18.598;2023-12-20T01:43:06;5.52;93.59
70271;SHT31;57680;54.292;18.598;2023-12-20T01:45:31;5.51;93.79
70271;SHT31;57680;54.292;18.598;2023-12-20T01:47:57;5.51;93.67
70271;SHT31;57680;54.292;18.598;2023-12-20T01:50:23;5.49;93.56
70271;SHT31;57680;54.292;18.598;2023-12-20T01:52:49;5.46;93.51
70271;SHT31;57680;54.292;18.598;2023-12-20T01:55:14;5.49;93.34
70271;SHT31;57680;54.292;18.598;2023-12-20T01:57:41;5.43;93.25
70271;SHT31;57680;54.292;18.598;2023-12-20T02:00:07;5.34;93.13
70271;SHT31;57680;54.292;18.598;2023-12-20T02:02:33;5.31;93.25
70271;SHT31;57680;54.292;18.598;2023-12-20T02:04:58;5.22;93.45
70271;SHT31;57680;54.292;18.598;2023-12-20T02:07:24;5.10;93.66
70271;SHT31;57680;54.292;18.598;2023-12-20T02:09:50;5.04;94.25
70271;SHT31;57680;54.292;18.598;2023-12-20T02:12:15;4.95;94.70
70271;SHT31;57680;54.292;18.598;2023-12-20T02:14:40;4.85;94.85
70271;SHT31;57680;54.292;18.598;2023-12-20T02:17:06;4.80;94.89
70271;SHT31;57680;54.292;18.598;2023-12-20T02:19:31;4.76;94.14
70271;SHT31;57680;54.292;18.598;2023-12-20T02:22:09;4.85;93.75
70271;SHT31;57680;54.292;18.598;2023-12-20T02:24:35;4.76;93.70
70271;SHT31;57680;54.292;18.598;2023-12-20T02:27:00;4.72;94.17
70271;SHT31;57680;54.292;18.598;2023-12-20T02:29:26;4.72;93.82
70271;SHT31;57680;54.292;18.598;2023-12-20T02:31:51;4.70;94.02
70271;SHT31;57680;54.292;18.598;2023-12-20T02:34:16;4.69;94.18
70271;SHT31;57680;54.292;18.598;2023-12-20T02:36:42;4.70;94.38
70271;SHT31;57680;54.292;18.598;2023-12-20T02:39:07;4.72;94.35
70271;SHT31;57680;54.292;18.598;2023-12-20T02:41:32;4.67;94.26
70271;SHT31;57680;54.292;18.598;2023-12-20T02:43:58;4.66;94.32
70271;SHT31;57680;54.292;18.598;2023-12-20T02:46:23;4.63;94.46
70271;SHT31;57680;54.292;18.598;2023-12-20T02:48:48;4.62;94.55
70271;SHT31;57680;54.292;18.598;2023-12-20T02:51:13;4.64;94.69
70271;SHT31;57680;54.292;18.598;2023-12-20T02:53:39;4.60;94.78
70271;SHT31;57680;54.292;18.598;2023-12-20T02:56:04;4.57;94.72
70271;SHT31;57680;54.292;18.598;2023-12-20T02:58:30;4.59;94.91
70271;SHT31;57680;54.292;18.598;2023-12-20T03:00:55;4.57;94.65
70271;SHT31;57680;54.292;18.598;2023-12-20T03:03:20;4.54;94.58
70271;SHT31;57680;54.292;18.598;2023-12-20T03:05:45;4.59;94.52
70271;SHT31;57680;54.292;18.598;2023-12-20T03:08:11;4.57;94.49
70271;SHT31;57680;54.292;18.598;2023-12-20T03:10:36;4.57;94.72
70271;SHT31;57680;54.292;18.598;2023-12-20T03:13:01;4.50;94.64
70271;SHT31;57680;54.292;18.598;2023-12-20T03:15:26;4.46;94.80
70271;SHT31;57680;54.292;18.598;2023-12-20T03:17:52;4.35;94.85
70271;SHT31;57680;54.292;18.598;2023-12-20T03:20:17;4.25;95.05
70271;SHT31;57680;54.292;18.598;2023-12-20T03:22:42;4.22;95.27
70271;SHT31;57680;54.292;18.598;2023-12-20T03:25:07;4.13;95.61
70271;SHT31;57680;54.292;18.598;2023-12-20T03:27:33;4.06;95.78
70271;SHT31;57680;54.292;18.598;2023-12-20T03:29:58;4.03;96.07
70271;SHT31;57680;54.292;18.598;2023-12-20T03:32:23;3.98;96.23
70271;SHT31;57680;54.292;18.598;2023-12-20T03:34:49;3.87;96.07
70271;SHT31;57680;54.292;18.598;2023-12-20T03:37:14;3.84;96.34
70271;SHT31;57680;54.292;18.598;2023-12-20T03:39:39;3.80;96.53
70271;SHT31;57680;54.292;18.598;2023-12-20T03:42:05;3.75;96.71
70271;SHT31;57680;54.292;18.598;2023-12-20T03:44:30;3.74;96.92
70271;SHT31;57680;54.292;18.598;2023-12-20T03:46:55;3.71;97.04
70271;SHT31;57680;54.292;18.598;2023-12-20T03:49:20;3.71;97.16
70271;SHT31;57680;54.292;18.598;2023-12-20T03:51:46;3.70;97.23
70271;SHT31;57680;54.292;18.598;2023-12-20T03:54:11;3.74;97.51
70271;SHT31;57680;54.292;18.598;2023-12-20T03:56:36;3.78;97.70
70271;SHT31;57680;54.292;18.598;2023-12-20T03:59:01;3.81;97.80
70271;SHT31;57680;54.292;18.598;2023-12-20T04:01:27;3.81;97.71
70271;SHT31;57680;54.292;18.598;2023-12-20T04:03:52;3.84;97.60
70271;SHT31;57680;54.292;18.598;2023-12-20T04:06:18;3.84;97.48
70271;SHT31;57680;54.292;18.598;2023-12-20T04:08:43;3.82;97.37
70271;SHT31;57680;54.292;18.598;2023-12-20T04:11:08;3.78;97.45
70271;SHT31;57680;54.292;18.598;2023-12-20T04:13:34;3.71;97.49
70271;SHT31;57680;54.292;18.598;2023-12-20T04:15:59;3.69;97.68
70271;SHT31;57680;54.292;18.598;2023-12-20T04:18:24;3.63;97.70
70271;SHT31;57680;54.292;18.598;2023-12-20T04:20:50;3.56;97.71
70271;SHT31;57680;54.292;18.598;2023-12-20T04:23:15;3.51;97.95
70271;SHT31;57680;54.292;18.598;2023-12-20T04:25:40;3.54;98.13
70271;SHT31;57680;54.292;18.598;2023-12-20T04:28:06;3.50;97.94
70271;SHT31;57680;54.292;18.598;2023-12-20T04:30:31;3.46;97.90
70271;SHT31;57680;54.292;18.598;2023-12-20T04:32:56;3.44;98.06
70271;SHT31;57680;54.292;18.598;2023-12-20T04:35:21;3.44;98.19
70271;SHT31;57680;54.292;18.598;2023-12-20T04:37:47;3.43;98.10
70271;SHT31;57680;54.292;18.598;2023-12-20T04:40:12;3.39;97.92
70271;SHT31;57680;54.292;18.598;2023-12-20T04:42:37;3.37;98.17
70271;SHT31;57680;54.292;18.598;2023-12-20T04:45:03;3.36;98.34
70271;SHT31;57680;54.292;18.598;2023-12-20T04:47:28;3.34;98.04
70271;SHT31;57680;54.292;18.598;2023-12-20T04:49:53;3.33;98.12
70271;SHT31;57680;54.292;18.598;2023-12-20T04:52:18;3.23;98.23
70271;SHT31;57680;54.292;18.598;2023-12-20T04:54:44;3.22;98.27
70271;SHT31;57680;54.292;18.598;2023-12-20T04:57:09;3.16;98.30
70271;SHT31;57680;54.292;18.598;2023-12-20T04:59:34;3.13;98.66
70271;SHT31;57680;54.292;18.598;2023-12-20T05:02:00;3.12;98.69
70271;SHT31;57680;54.292;18.598;2023-12-20T05:04:25;3.11;98.54
70271;SHT31;57680;54.292;18.598;2023-12-20T05:06:50;3.09;98.32
70271;SHT31;57680;54.292;18.598;2023-12-20T05:09:16;3.05;98.22
70271;SHT31;57680;54.292;18.598;2023-12-20T05:11:41;3.02;98.29
70271;SHT31;57680;54.292;18.598;2023-12-20T05:14:06;2.96;98.17
70271;SHT31;57680;54.292;18.598;2023-12-20T05:16:31;2.92;98.18
70271;SHT31;57680;54.292;18.598;2023-12-20T05:18:57;2.92;98.29
70271;SHT31;57680;54.292;18.598;2023-12-20T05:21:22;2.89;98.24
70271;SHT31;57680;54.292;18.598;2023-12-20T05:23:47;2.85;98.35
70271;SHT31;57680;54.292;18.598;2023-12-20T05:26:13;2.87;98.30
70271;SHT31;57680;54.292;18.598;2023-12-20T05:28:38;2.92;98.53
70271;SHT31;57680;54.292;18.598;2023-12-20T05:31:03;2.88;98.20
70271;SHT31;57680;54.292;18.598;2023-12-20T05:33:28;2.89;98.34
70271;SHT31;57680;54.292;18.598;2023-12-20T05:35:54;2.93;98.41
70271;SHT31;57680;54.292;18.598;2023-12-20T05:38:19;2.95;98.36
70271;SHT31;57680;54.292;18.598;2023-12-20T05:40:44;2.99;98.36
70271;SHT31;57680;54.292;18.598;2023-12-20T05:43:09;2.95;97.97
70271;SHT31;57680;54.292;18.598;2023-12-20T05:45:35;2.92;97.83
70271;SHT31;57680;54.292;18.598;2023-12-20T05:48:00;2.89;97.95
70271;SHT31;57680;54.292;18.598;2023-12-20T05:50:25;2.91;97.91
70271;SHT31;57680;54.292;18.598;2023-12-20T05:52:50;2.91;97.99
70271;SHT31;57680;54.292;18.598;2023-12-20T05:55:16;2.93;98.08
70271;SHT31;57680;54.292;18.598;2023-12-20T05:57:41;2.91;97.76
70271;SHT31;57680;54.292;18.598;2023-12-20T06:00:07;2.88;97.75
70271;SHT31;57680;54.292;18.598;2023-12-20T06:02:32;2.89;97.64
70271;SHT31;57680;54.292;18.598;2023-12-20T06:04:58;2.81;97.65
70271;SHT31;57680;54.292;18.598;2023-12-20T06:07:23;2.84;97.97
70271;SHT31;57680;54.292;18.598;2023-12-20T06:09:48;2.77;97.92
70271;SHT31;57680;54.292;18.598;2023-12-20T06:12:13;2.78;98.02
70271;SHT31;57680;54.292;18.598;2023-12-20T06:14:39;2.75;97.91
70271;SHT31;57680;54.292;18.598;2023-12-20T06:17:04;2.65;97.89
70271;SHT31;57680;54.292;18.598;2023-12-20T06:19:29;2.64;98.09
70271;SHT31;57680;54.292;18.598;2023-12-20T06:21:55;2.60;98.14
70271;SHT31;57680;54.292;18.598;2023-12-20T06:24:20;2.57;98.52
70271;SHT31;57680;54.292;18.598;2023-12-20T06:26:45;2.54;98.36
70271;SHT31;57680;54.292;18.598;2023-12-20T06:29:10;2.50;98.31
70271;SHT31;57680;54.292;18.598;2023-12-20T06:31:36;2.47;98.46
70271;SHT31;57680;54.292;18.598;2023-12-20T06:34:01;2.45;98.58
70271;SHT31;57680;54.292;18.598;2023-12-20T06:36:26;2.42;98.50
70271;SHT31;57680;54.292;18.598;2023-12-20T06:38:52;2.41;98.43
70271;SHT31;57680;54.292;18.598;2023-12-20T06:41:17;2.36;98.41
70271;SHT31;57680;54.292;18.598;2023-12-20T06:43:43;2.31;98.38
70271;SHT31;57680;54.292;18.598;2023-12-20T06:46:08;2.26;98.51
70271;SHT31;57680;54.292;18.598;2023-12-20T06:48:34;2.23;98.64
70271;SHT31;57680;54.292;18.598;2023-12-20T06:51:01;2.17;98.69
70271;SHT31;57680;54.292;18.598;2023-12-20T06:53:26;2.17;98.94
70271;SHT31;57680;54.292;18.598;2023-12-20T06:55:52;2.20;99.17
70271;SHT31;57680;54.292;18.598;2023-12-20T06:58:17;2.17;99.21
70271;SHT31;57680;54.292;18.598;2023-12-20T07:00:42;2.16;99.34
70271;SHT31;57680;54.292;18.598;2023-12-20T07:03:09;2.16;99.43
70271;SHT31;57680;54.292;18.598;2023-12-20T07:05:34;2.23;99.83
70271;SHT31;57680;54.292;18.598;2023-12-20T07:07:59;2.23;99.54
70271;SHT31;57680;54.292;18.598;2023-12-20T07:10:25;2.29;99.55
70271;SHT31;57680;54.292;18.598;2023-12-20T07:12:50;2.24;99.23
70271;SHT31;57680;54.292;18.598;2023-12-20T07:15:15;2.23;99.25
70271;SHT31;57680;54.292;18.598;2023-12-20T07:17:41;2.21;99.06
70271;SHT31;57680;54.292;18.598;2023-12-20T07:20:07;2.20;99.02
70271;SHT31;57680;54.292;18.598;2023-12-20T07:22:33;2.16;98.88
70271;SHT31;57680;54.292;18.598;2023-12-20T07:24:59;2.09;98.66
70271;SHT31;57680;54.292;18.598;2023-12-20T07:27:25;2.11;98.99
70271;SHT31;57680;54.292;18.598;2023-12-20T07:29:50;2.10;98.78
70271;SHT31;57680;54.292;18.598;2023-12-20T07:32:16;2.19;98.91
70271;SHT31;57680;54.292;18.598;2023-12-20T07:34:41;2.19;98.73
70271;SHT31;57680;54.292;18.598;2023-12-20T07:37:06;2.21;98.50
70271;SHT31;57680;54.292;18.598;2023-12-20T07:39:31;2.27;98.22
70271;SHT31;57680;54.292;18.598;2023-12-20T07:41:57;2.36;98.28
70271;SHT31;57680;54.292;18.598;2023-12-20T07:44:22;2.37;97.86
70271;SHT31;57680;54.292;18.598;2023-12-20T07:46:47;2.42;97.95
70271;SHT31;57680;54.292;18.598;2023-12-20T07:49:12;2.50;97.88
70271;SHT31;57680;54.292;18.598;2023-12-20T07:51:38;2.51;97.39
70271;SHT31;57680;54.292;18.598;2023-12-20T07:54:03;2.60;97.19
70271;SHT31;57680;54.292;18.598;2023-12-20T07:56:28;2.60;96.94
70271;SHT31;57680;54.292;18.598;2023-12-20T07:58:54;2.61;96.81
70271;SHT31;57680;54.292;18.598;2023-12-20T08:01:19;2.61;96.33
70271;SHT31;57680;54.292;18.598;2023-12-20T08:03:44;2.65;96.27
70271;SHT31;57680;54.292;18.598;2023-12-20T08:06:10;2.68;95.95
70271;SHT31;57680;54.292;18.598;2023-12-20T08:08:35;2.70;95.66
70271;SHT31;57680;54.292;18.598;2023-12-20T08:11:00;2.84;95.21
70271;SHT31;57680;54.292;18.598;2023-12-20T08:13:26;2.91;94.96
70271;SHT31;57680;54.292;18.598;2023-12-20T08:15:52;3.01;95.18
70271;SHT31;57680;54.292;18.598;2023-12-20T08:18:17;3.01;94.44
70271;SHT31;57680;54.292;18.598;2023-12-20T08:20:43;3.16;94.30
70271;SHT31;57680;54.292;18.598;2023-12-20T08:23:08;3.24;93.97
70271;SHT31;57680;54.292;18.598;2023-12-20T08:25:33;3.42;93.75
70271;SHT31;57680;54.292;18.598;2023-12-20T08:27:59;3.43;93.43
70271;SHT31;57680;54.292;18.598;2023-12-20T08:30:24;3.43;93.13
70271;SHT31;57680;54.292;18.598;2023-12-20T08:32:49;3.40;93.19
70271;SHT31;57680;54.292;18.598;2023-12-20T08:35:15;3.46;93.18
70271;SHT31;57680;54.292;18.598;2023-12-20T08:37:40;3.53;93.00
70271;SHT31;57680;54.292;18.598;2023-12-20T08:40:06;3.60;92.83
70271;SHT31;57680;54.292;18.598;2023-12-20T08:42:31;3.70;92.48
70271;SHT31;57680;54.292;18.598;2023-12-20T08:44:59;3.84;92.39
70271;SHT31;57680;54.292;18.598;2023-12-20T08:47:25;4.05;92.22
70271;SHT31;57680;54.292;18.598;2023-12-20T08:49:50;4.22;91.97
70271;SHT31;57680;54.292;18.598;2023-12-20T08:52:16;4.39;91.01
70271;SHT31;57680;54.292;18.598;2023-12-20T08:54:41;4.59;90.61
70271;SHT31;57680;54.292;18.598;2023-12-20T08:57:06;4.74;89.93
70271;SHT31;57680;54.292;18.598;2023-12-20T08:59:32;4.87;89.23
70271;SHT31;57680;54.292;18.598;2023-12-20T09:01:57;5.00;88.92
70271;SHT31;57680;54.292;18.598;2023-12-20T09:04:22;4.93;88.49
70271;SHT31;57680;54.292;18.598;2023-12-20T09:06:47;4.91;88.85
70271;SHT31;57680;54.292;18.598;2023-12-20T09:09:13;4.91;88.58
70271;SHT31;57680;54.292;18.598;2023-12-20T09:11:38;4.98;88.47
70271;SHT31;57680;54.292;18.598;2023-12-20T09:14:03;5.11;87.94
70271;SHT31;57680;54.292;18.598;2023-12-20T09:16:28;5.22;87.54
70271;SHT31;57680;54.292;18.598;2023-12-20T09:18:54;5.18;87.49
70271;SHT31;57680;54.292;18.598;2023-12-20T09:21:19;5.01;87.25
70271;SHT31;57680;54.292;18.598;2023-12-20T09:23:44;4.90;88.10
70271;SHT31;57680;54.292;18.598;2023-12-20T09:26:10;4.81;88.33
70271;SHT31;57680;54.292;18.598;2023-12-20T09:28:35;4.79;88.40
70271;SHT31;57680;54.292;18.598;2023-12-20T09:31:00;4.83;88.53
70271;SHT31;57680;54.292;18.598;2023-12-20T09:33:25;4.91;88.22
70271;SHT31;57680;54.292;18.598;2023-12-20T09:35:51;5.14;88.31
70271;SHT31;57680;54.292;18.598;2023-12-20T09:38:16;5.25;88.18
70271;SHT31;57680;54.292;18.598;2023-12-20T09:40:41;5.24;87.63
70271;SHT31;57680;54.292;18.598;2023-12-20T09:43:11;5.32;88.03
70271;SHT31;57680;54.292;18.598;2023-12-20T09:45:38;5.32;87.72
70271;SHT31;57680;54.292;18.598;2023-12-20T09:48:05;5.27;87.46
70271;SHT31;57680;54.292;18.598;2023-12-20T09:50:30;5.15;87.83
70271;SHT31;57680;54.292;18.598;2023-12-20T09:52:57;5.10;87.98
70271;SHT31;57680;54.292;18.598;2023-12-20T09:55:25;5.08;88.47
70271;SHT31;57680;54.292;18.598;2023-12-20T09:57:50;5.08;88.32
70271;SHT31;57680;54.292;18.598;2023-12-20T10:00:16;5.12;88.42
70271;SHT31;57680;54.292;18.598;2023-12-20T10:02:49;5.11;88.36
70271;SHT31;57680;54.292;18.598;2023-12-20T10:05:16;5.20;88.34
70271;SHT31;57680;54.292;18.598;2023-12-20T10:07:42;5.28;88.31
70271;SHT31;57680;54.292;18.598;2023-12-20T10:10:07;5.34;87.44
70271;SHT31;57680;54.292;18.598;2023-12-20T10:12:33;5.35;87.20
70271;SHT31;57680;54.292;18.598;2023-12-20T10:14:58;5.45;87.96
70271;SHT31;57680;54.292;18.598;2023-12-20T10:17:23;5.35;87.65
70271;SHT31;57680;54.292;18.598;2023-12-20T10:19:48;5.30;87.79
70271;SHT31;57680;54.292;18.598;2023-12-20T10:22:15;5.24;87.51
70271;SHT31;57680;54.292;18.598;2023-12-20T10:24:40;5.18;87.74
70271;SHT31;57680;54.292;18.598;2023-12-20T10:27:07;5.08;87.78
70271;SHT31;57680;54.292;18.598;2023-12-20T10:29:36;5.07;87.93
70271;SHT31;57680;54.292;18.598;2023-12-20T10:32:21;5.05;88.56
70271;SHT31;57680;54.292;18.598;2023-12-20T10:34:47;5.03;88.39
70271;SHT31;57680;54.292;18.598;2023-12-20T10:37:12;5.00;88.67
70271;SHT31;57680;54.292;18.598;2023-12-20T10:39:38;5.03;89.01
70271;SHT31;57680;54.292;18.598;2023-12-20T10:42:04;4.97;88.72
70271;SHT31;57680;54.292;18.598;2023-12-20T10:44:30;4.97;88.95
70271;SHT31;57680;54.292;18.598;2023-12-20T10:46:55;4.95;89.01
70271;SHT31;57680;54.292;18.598;2023-12-20T10:49:21;4.91;89.52
70271;SHT31;57680;54.292;18.598;2023-12-20T10:51:47;4.95;89.57
70271;SHT31;57680;54.292;18.598;2023-12-20T10:54:13;4.90;89.58
70271;SHT31;57680;54.292;18.598;2023-12-20T10:56:39;4.91;89.77
70271;SHT31;57680;54.292;18.598;2023-12-20T10:59:05;4.94;89.99
70271;SHT31;57680;54.292;18.598;2023-12-20T11:01:34;5.03;89.34
70271;SHT31;57680;54.292;18.598;2023-12-20T11:04:00;5.01;89.64
70271;SHT31;57680;54.292;18.598;2023-12-20T11:06:49;5.10;89.34
70271;SHT31;57680;54.292;18.598;2023-12-20T11:09:29;5.07;89.86
70271;SHT31;57680;54.292;18.598;2023-12-20T11:12:06;5.08;89.68
70271;SHT31;57680;54.292;18.598;2023-12-20T11:14:43;5.10;89.97
70271;SHT31;57680;54.292;18.598;2023-12-20T11:17:11;5.17;89.37
70271;SHT31;57680;54.292;18.598;2023-12-20T11:19:43;5.20;89.92
70271;SHT31;57680;54.292;18.598;2023-12-20T11:22:30;5.21;89.52
70271;SHT31;57680;54.292;18.598;2023-12-20T11:25:03;5.22;89.79
70271;SHT31;57680;54.292;18.598;2023-12-20T11:27:30;5.21;89.85
70271;SHT31;57680;54.292;18.598;2023-12-20T11:29:56;5.24;89.88
70271;SHT31;57680;54.292;18.598;2023-12-20T11:34:55;5.22;89.99
70271;SHT31;57680;54.292;18.598;2023-12-20T11:37:20;5.20;90.05
70271;SHT31;57680;54.292;18.598;2023-12-20T11:39:58;5.25;90.20
70271;SHT31;57680;54.292;18.598;2023-12-20T11:42:25;5.27;90.19
70271;SHT31;57680;54.292;18.598;2023-12-20T11:44:50;5.31;90.15
70271;SHT31;57680;54.292;18.598;2023-12-20T11:47:16;5.35;89.71
70271;SHT31;57680;54.292;18.598;2023-12-20T11:49:41;5.36;90.03
70271;SHT31;57680;54.292;18.598;2023-12-20T11:52:07;5.38;90.31
70271;SHT31;57680;54.292;18.598;2023-12-20T11:54:32;5.41;90.18
70271;SHT31;57680;54.292;18.598;2023-12-20T11:56:57;5.39;90.21
70271;SHT31;57680;54.292;18.598;2023-12-20T11:59:24;5.42;90.28
70271;SHT31;57680;54.292;18.598;2023-12-20T12:01:50;5.43;90.10
70271;SHT31;57680;54.292;18.598;2023-12-20T12:04:15;5.48;90.31
70271;SHT31;57680;54.292;18.598;2023-12-20T12:06:41;5.52;89.84
70271;SHT31;57680;54.292;18.598;2023-12-20T12:09:06;5.55;90.06
70271;SHT31;57680;54.292;18.598;2023-12-20T12:11:32;5.62;89.92
70271;SHT31;57680;54.292;18.598;2023-12-20T12:13:57;5.56;89.84
70271;SHT31;57680;54.292;18.598;2023-12-20T12:16:23;5.51;89.88
70271;SHT31;57680;54.292;18.598;2023-12-20T12:18:56;5.51;89.88
70271;SHT31;57680;54.292;18.598;2023-12-20T12:21:21;5.45;90.09
70271;SHT31;57680;54.292;18.598;2023-12-20T12:23:46;5.42;90.26
70271;SHT31;57680;54.292;18.598;2023-12-20T12:26:12;5.38;89.99
70271;SHT31;57680;54.292;18.598;2023-12-20T12:28:40;5.34;90.89
70271;SHT31;57680;54.292;18.598;2023-12-20T12:31:05;5.36;90.71
70271;SHT31;57680;54.292;18.598;2023-12-20T12:33:31;5.35;90.44
70271;SHT31;57680;54.292;18.598;2023-12-20T12:35:56;5.34;90.61
70271;SHT31;57680;54.292;18.598;2023-12-20T12:38:22;5.31;90.81
70271;SHT31;57680;54.292;18.598;2023-12-20T12:40:47;5.27;90.52
70271;SHT31;57680;54.292;18.598;2023-12-20T12:43:13;5.32;90.66
70271;SHT31;57680;54.292;18.598;2023-12-20T12:45:38;5.28;91.07
70271;SHT31;57680;54.292;18.598;2023-12-20T12:48:04;5.27;90.77
70271;SHT31;57680;54.292;18.598;2023-12-20T12:50:30;5.25;90.77
70271;SHT31;57680;54.292;18.598;2023-12-20T12:52:56;5.25;90.72
70271;SHT31;57680;54.292;18.598;2023-12-20T12:55:21;5.22;90.35
70271;SHT31;57680;54.292;18.598;2023-12-20T12:57:46;5.21;90.51
70271;SHT31;57680;54.292;18.598;2023-12-20T13:00:12;5.17;90.89
70271;SHT31;57680;54.292;18.598;2023-12-20T13:02:37;5.17;90.66
70271;SHT31;57680;54.292;18.598;2023-12-20T13:05:03;5.14;90.89
70271;SHT31;57680;54.292;18.598;2023-12-20T13:07:29;5.14;90.67
70271;SHT31;57680;54.292;18.598;2023-12-20T13:09:54;5.11;90.74
70271;SHT31;57680;54.292;18.598;2023-12-20T13:12:19;5.11;91.22
70271;SHT31;57680;54.292;18.598;2023-12-20T13:14:45;5.05;91.38
70271;SHT31;57680;54.292;18.598;2023-12-20T13:17:10;5.00;91.72
70271;SHT31;57680;54.292;18.598;2023-12-20T13:19:35;5.03;92.09
70271;SHT31;57680;54.292;18.598;2023-12-20T13:22:01;5.04;92.10
70271;SHT31;57680;54.292;18.598;2023-12-20T13:24:26;5.03;92.25
70271;SHT31;57680;54.292;18.598;2023-12-20T13:26:51;5.04;91.97
70271;SHT31;57680;54.292;18.598;2023-12-20T13:29:17;5.07;91.46
70271;SHT31;57680;54.292;18.598;2023-12-20T13:31:42;5.07;91.10
70271;SHT31;57680;54.292;18.598;2023-12-20T13:34:07;5.04;91.17
70271;SHT31;57680;54.292;18.598;2023-12-20T13:36:32;5.07;91.03
70271;SHT31;57680;54.292;18.598;2023-12-20T13:38:58;5.01;91.29
70271;SHT31;57680;54.292;18.598;2023-12-20T13:41:23;4.98;90.88
70271;SHT31;57680;54.292;18.598;2023-12-20T13:43:48;4.95;90.92
70271;SHT31;57680;54.292;18.598;2023-12-20T13:46:14;4.91;91.24
70271;SHT31;57680;54.292;18.598;2023-12-20T13:48:39;4.97;91.14
70271;SHT31;57680;54.292;18.598;2023-12-20T13:51:05;4.95;90.97
70271;SHT31;57680;54.292;18.598;2023-12-20T13:53:30;4.93;91.26
70271;SHT31;57680;54.292;18.598;2023-12-20T13:55:55;4.83;91.48
70271;SHT31;57680;54.292;18.598;2023-12-20T13:58:20;4.87;91.39
70271;SHT31;57680;54.292;18.598;2023-12-20T14:00:46;4.84;91.12
70271;SHT31;57680;54.292;18.598;2023-12-20T14:03:11;4.88;91.11
70271;SHT31;57680;54.292;18.598;2023-12-20T14:05:36;4.85;91.03
70271;SHT31;57680;54.292;18.598;2023-12-20T14:08:02;4.80;91.45
70271;SHT31;57680;54.292;18.598;2023-12-20T14:10:27;4.80;91.55
70271;SHT31;57680;54.292;18.598;2023-12-20T14:12:53;4.80;91.53
70271;SHT31;57680;54.292;18.598;2023-12-20T14:15:19;4.79;91.58
70271;SHT31;57680;54.292;18.598;2023-12-20T14:17:44;4.77;91.66
70271;SHT31;57680;54.292;18.598;2023-12-20T14:20:10;4.80;91.23
70271;SHT31;57680;54.292;18.598;2023-12-20T14:22:35;4.80;91.51
70271;SHT31;57680;54.292;18.598;2023-12-20T14:25:01;4.81;91.75
70271;SHT31;57680;54.292;18.598;2023-12-20T14:27:27;4.80;92.01
70271;SHT31;57680;54.292;18.598;2023-12-20T14:29:52;4.76;92.22
70271;SHT31;57680;54.292;18.598;2023-12-20T14:32:17;4.69;92.39
70271;SHT31;57680;54.292;18.598;2023-12-20T14:34:42;4.62;92.61
70271;SHT31;57680;54.292;18.598;2023-12-20T14:37:08;4.62;92.85
70271;SHT31;57680;54.292;18.598;2023-12-20T14:39:33;4.64;92.70
70271;SHT31;57680;54.292;18.598;2023-12-20T14:41:58;4.62;92.91
70271;SHT31;57680;54.292;18.598;2023-12-20T14:44:23;4.59;92.94
70271;SHT31;57680;54.292;18.598;2023-12-20T14:46:49;4.63;92.79
70271;SHT31;57680;54.292;18.598;2023-12-20T14:49:15;4.64;92.72
70271;SHT31;57680;54.292;18.598;2023-12-20T14:51:43;4.64;93.08
70271;SHT31;57680;54.292;18.598;2023-12-20T14:54:09;4.66;93.07
70271;SHT31;57680;54.292;18.598;2023-12-20T14:56:34;4.62;93.07
70271;SHT31;57680;54.292;18.598;2023-12-20T14:58:59;4.62;92.99
70271;SHT31;57680;54.292;18.598;2023-12-20T15:01:25;4.60;93.28
70271;SHT31;57680;54.292;18.598;2023-12-20T15:03:50;4.64;93.26
70271;SHT31;57680;54.292;18.598;2023-12-20T15:06:15;4.63;93.31
70271;SHT31;57680;54.292;18.598;2023-12-20T15:08:41;4.63;93.15
70271;SHT31;57680;54.292;18.598;2023-12-20T15:11:06;4.60;93.31
70271;SHT31;57680;54.292;18.598;2023-12-20T15:13:32;4.52;93.18
70271;SHT31;57680;54.292;18.598;2023-12-20T15:15:57;4.48;93.23
70271;SHT31;57680;54.292;18.598;2023-12-20T15:18:22;4.42;92.95
70271;SHT31;57680;54.292;18.598;2023-12-20T15:20:47;4.39;93.32
70271;SHT31;57680;54.292;18.598;2023-12-20T15:23:13;4.33;93.45